createdAt,value
2023-01-04T00:01:36.729Z,9.60
2023-01-04T00:04:05.229Z,9.60
2023-01-04T00:06:34.905Z,9.60
2023-01-04T00:09:02.908Z,9.70
2023-01-04T00:11:30.994Z,9.70
2023-01-04T00:13:59.909Z,9.70
2023-01-04T00:16:30.177Z,9.80
2023-01-04T00:18:59.031Z,9.80
2023-01-04T00:21:29.003Z,9.80
2023-01-04T00:24:01.147Z,9.80
2023-01-04T00:26:30.994Z,9.80
2023-01-04T00:29:01.909Z,9.80
2023-01-04T00:31:30.593Z,9.90
2023-01-04T00:34:00.403Z,9.90
2023-01-04T00:36:29.205Z,9.90
2023-01-04T00:39:09.127Z,10.00
2023-01-04T00:44:26.642Z,10.00
2023-01-04T00:46:54.717Z,10.10
2023-01-04T00:49:22.847Z,10.10
2023-01-04T00:51:50.968Z,10.10
2023-01-04T00:54:21.090Z,10.10
2023-01-04T00:56:49.687Z,10.10
2023-01-04T00:59:19.927Z,10.10
2023-01-04T01:01:48.453Z,10.10
2023-01-04T01:04:18.921Z,10.10
2023-01-04T01:06:47.090Z,10.10
2023-01-04T01:09:15.310Z,10.10
2023-01-04T01:11:45.081Z,10.10
2023-01-04T01:14:18.285Z,10.10
2023-01-04T01:16:56.572Z,10.10
2023-01-04T01:19:26.006Z,10.10
2023-01-04T01:21:54.331Z,10.10
2023-01-04T01:24:22.409Z,10.10
2023-01-04T01:26:51.775Z,10.10
2023-01-04T01:29:19.905Z,10.00
2023-01-04T01:31:48.103Z,10.00
2023-01-04T01:34:16.152Z,10.00
2023-01-04T01:36:44.320Z,10.00
2023-01-04T01:39:12.597Z,9.90
2023-01-04T01:41:40.737Z,9.90
2023-01-04T01:44:42.061Z,9.90
2023-01-04T01:47:15.900Z,9.90
2023-01-04T01:49:45.863Z,9.80
2023-01-04T01:52:19.302Z,9.80
2023-01-04T01:54:50.618Z,9.90
2023-01-04T01:57:21.710Z,9.90
2023-01-04T01:59:52.195Z,9.80
2023-01-04T02:02:22.349Z,9.80
2023-01-04T02:04:52.189Z,9.80
2023-01-04T02:07:25.800Z,9.70
2023-01-04T02:09:55.106Z,9.70
2023-01-04T02:12:23.245Z,9.70
2023-01-04T02:14:52.712Z,9.60
2023-01-04T02:17:35.113Z,9.70
2023-01-04T02:20:38.134Z,9.60
2023-01-04T02:23:55.186Z,9.60
2023-01-04T02:27:01.576Z,9.60
2023-01-04T02:30:07.108Z,9.60
2023-01-04T02:32:50.222Z,9.60
2023-01-04T02:35:24.992Z,9.70
2023-01-04T02:38:03.243Z,9.70
2023-01-04T02:40:41.441Z,9.70
2023-01-04T02:43:37.545Z,9.70
2023-01-04T02:46:09.409Z,9.70
2023-01-04T02:48:57.453Z,9.70
2023-01-04T02:51:31.993Z,9.60
2023-01-04T02:54:03.816Z,9.70
2023-01-04T02:56:45.409Z,9.60
2023-01-04T02:59:34.550Z,9.60
2023-01-04T03:02:36.274Z,9.70
2023-01-04T03:05:31.591Z,9.70
2023-01-04T03:08:07.048Z,9.80
2023-01-04T03:10:40.028Z,9.90
2023-01-04T03:13:13.772Z,10.00
2023-01-04T03:15:43.620Z,10.00
2023-01-04T03:18:16.330Z,10.10
2023-01-04T03:20:48.115Z,10.10
2023-01-04T03:23:37.635Z,10.10
2023-01-04T03:26:27.630Z,10.20
2023-01-04T03:29:16.075Z,10.20
2023-01-04T03:32:17.128Z,10.30
2023-01-04T03:35:02.666Z,10.40
2023-01-04T03:37:38.508Z,10.40
2023-01-04T03:40:39.366Z,10.30
2023-01-04T03:43:30.140Z,10.40
2023-01-04T03:46:22.373Z,10.40
2023-01-04T03:48:55.379Z,10.50
2023-01-04T03:51:26.782Z,10.40
2023-01-04T03:54:04.058Z,10.50
2023-01-04T03:56:33.615Z,10.50
2023-01-04T03:59:01.960Z,10.50
2023-01-04T04:01:30.794Z,10.50
2023-01-04T04:04:16.635Z,10.50
2023-01-04T04:07:02.248Z,10.50
2023-01-04T04:09:31.915Z,10.60
2023-01-04T04:12:00.245Z,10.60
2023-01-04T04:14:28.328Z,10.60
2023-01-04T04:16:56.428Z,10.60
2023-01-04T04:19:24.480Z,10.60
2023-01-04T04:21:52.527Z,10.60
2023-01-04T04:24:24.313Z,10.60
2023-01-04T04:26:55.422Z,10.60
2023-01-04T04:29:23.935Z,10.50
2023-01-04T04:31:52.236Z,10.60
2023-01-04T04:34:20.332Z,10.50
2023-01-04T04:36:48.384Z,10.50
2023-01-04T04:39:16.583Z,10.50
2023-01-04T04:41:43.722Z,10.40
2023-01-04T04:44:15.066Z,10.40
2023-01-04T04:46:44.143Z,10.40
2023-01-04T04:49:13.726Z,10.50
2023-01-04T04:51:42.969Z,10.40
2023-01-04T04:54:16.105Z,10.40
2023-01-04T04:56:44.142Z,10.50
2023-01-04T04:59:13.559Z,10.50
2023-01-04T05:01:41.741Z,10.50
2023-01-04T05:04:14.160Z,10.60
2023-01-04T05:06:42.437Z,10.60
2023-01-04T05:09:11.723Z,10.50
2023-01-04T05:11:57.383Z,10.60
2023-01-04T05:14:26.871Z,10.60
2023-01-04T05:16:55.048Z,10.70
2023-01-04T05:19:23.143Z,10.70
2023-01-04T05:21:51.115Z,10.70
2023-01-04T05:24:19.123Z,10.80
2023-01-04T05:26:47.103Z,10.80
2023-01-04T05:29:35.264Z,10.80
2023-01-04T05:32:03.716Z,10.80
2023-01-04T05:34:31.670Z,10.80
2023-01-04T05:36:59.654Z,10.80
2023-01-04T05:39:27.600Z,10.80
2023-01-04T05:42:13.311Z,10.80
2023-01-04T05:44:41.379Z,10.80
2023-01-04T05:47:14.818Z,10.90
2023-01-04T05:49:43.604Z,10.90
2023-01-04T05:52:11.900Z,10.90
2023-01-04T05:54:40.091Z,11.00
2023-01-04T05:57:08.377Z,11.00
2023-01-04T05:59:41.499Z,11.00
2023-01-04T06:02:16.224Z,11.00
2023-01-04T06:04:44.352Z,11.00
2023-01-04T06:07:12.364Z,11.00
2023-01-04T06:09:40.857Z,11.00
2023-01-04T06:12:09.520Z,11.00
2023-01-04T06:14:37.609Z,11.00
2023-01-04T06:17:05.767Z,11.00
2023-01-04T06:19:35.968Z,11.10
2023-01-04T06:22:04.123Z,11.10
2023-01-04T06:24:34.018Z,11.10
2023-01-04T06:27:02.028Z,11.10
2023-01-04T06:29:30.149Z,11.10
2023-01-04T06:31:58.196Z,11.10
2023-01-04T06:34:30.909Z,11.10
2023-01-04T06:37:01.131Z,11.10
2023-01-04T06:39:29.204Z,11.10
2023-01-04T06:42:03.953Z,11.10
2023-01-04T06:44:34.755Z,11.20
2023-01-04T06:47:02.768Z,11.20
2023-01-04T06:49:31.811Z,11.20
2023-01-04T06:52:01.229Z,11.20
2023-01-04T06:54:29.657Z,11.20
2023-01-04T06:56:57.844Z,11.20
2023-01-04T06:59:25.874Z,11.20
2023-01-04T07:01:54.009Z,11.30
2023-01-04T07:04:22.083Z,11.30
2023-01-04T07:06:50.194Z,11.30
2023-01-04T07:09:19.943Z,11.30
2023-01-04T07:11:47.914Z,11.30
2023-01-04T07:14:15.882Z,11.30
2023-01-04T07:16:43.944Z,11.30
2023-01-04T07:19:11.986Z,11.30
2023-01-04T07:21:40.008Z,11.40
2023-01-04T07:24:07.967Z,11.30
2023-01-04T07:26:37.528Z,11.40
2023-01-04T07:29:17.897Z,11.40
2023-01-04T07:31:47.649Z,11.50
2023-01-04T07:34:18.155Z,11.40
2023-01-04T07:36:46.213Z,11.40
2023-01-04T07:39:14.932Z,11.40
2023-01-04T07:41:44.861Z,11.40
2023-01-04T07:44:14.380Z,11.40
2023-01-04T07:46:43.252Z,11.50
2023-01-04T07:49:17.740Z,11.50
2023-01-04T07:51:46.763Z,11.50
2023-01-04T07:54:15.197Z,11.50
2023-01-04T07:56:44.614Z,11.50
2023-01-04T07:59:14.205Z,11.50
2023-01-04T08:01:42.814Z,11.50
2023-01-04T08:04:12.845Z,11.50
2023-01-04T08:06:43.369Z,11.50
2023-01-04T08:09:13.277Z,11.50
2023-01-04T08:11:41.878Z,11.60
2023-01-04T08:14:11.804Z,11.60
2023-01-04T08:16:42.635Z,11.60
2023-01-04T08:19:14.477Z,11.60
2023-01-04T08:21:42.740Z,11.60
2023-01-04T08:24:12.699Z,11.60
2023-01-04T08:26:40.866Z,11.70
2023-01-04T08:29:09.109Z,11.70
2023-01-04T08:31:38.816Z,11.70
2023-01-04T08:34:08.548Z,11.70
2023-01-04T08:36:44.572Z,11.70
2023-01-04T08:39:12.618Z,11.70
2023-01-04T08:42:06.846Z,11.80
2023-01-04T08:44:39.790Z,11.90
2023-01-04T08:47:09.200Z,11.80
2023-01-04T08:49:37.193Z,11.80
2023-01-04T08:52:05.452Z,11.80
2023-01-04T08:54:34.439Z,11.80
2023-01-04T08:57:02.690Z,11.80
2023-01-04T08:59:30.681Z,11.80
2023-01-04T09:02:05.416Z,11.80
2023-01-04T09:04:35.667Z,11.80
2023-01-04T09:07:03.771Z,11.90
2023-01-04T09:09:32.032Z,11.90
2023-01-04T09:12:00.529Z,11.90
2023-01-04T09:14:28.536Z,11.90
2023-01-04T09:16:56.870Z,11.90
2023-01-04T09:19:24.942Z,11.90
2023-01-04T09:21:54.382Z,12.00
2023-01-04T09:24:22.613Z,12.00
2023-01-04T09:26:50.781Z,12.00
2023-01-04T09:29:19.169Z,12.00
2023-01-04T09:31:47.330Z,12.00
2023-01-04T09:34:17.288Z,12.10
2023-01-04T09:36:46.085Z,12.10
2023-01-04T09:39:22.371Z,12.10
2023-01-04T09:41:56.453Z,12.10
2023-01-04T09:45:21.010Z,12.10
2023-01-04T09:47:33.855Z,12.10
2023-01-04T09:50:06.932Z,12.20
2023-01-04T09:52:50.393Z,12.20
2023-01-04T09:55:37.545Z,12.30
2023-01-04T09:58:25.719Z,12.30
2023-01-04T10:01:00.951Z,12.40
2023-01-04T10:03:32.498Z,12.40
2023-01-04T10:06:02.245Z,12.40
2023-01-04T10:08:31.431Z,12.40
2023-01-04T10:11:16.347Z,12.40
2023-01-04T10:14:05.375Z,12.50
2023-01-04T10:22:51.803Z,12.50
2023-01-04T10:25:25.768Z,12.50
2023-01-04T10:28:09.173Z,12.40
2023-01-04T10:30:46.930Z,12.50
2023-01-04T10:33:16.629Z,12.50
2023-01-04T10:35:46.482Z,12.50
2023-01-04T10:38:18.672Z,12.50
2023-01-04T10:40:50.379Z,12.50
2023-01-04T10:43:32.040Z,12.40
2023-01-04T10:46:24.237Z,12.40
2023-01-04T10:48:56.885Z,12.40
2023-01-04T10:51:30.653Z,12.40
2023-01-04T10:54:06.199Z,12.30
2023-01-04T10:56:39.370Z,12.20
2023-01-04T10:59:14.698Z,12.20
2023-01-04T11:01:49.021Z,12.20
2023-01-04T11:04:23.029Z,12.20
2023-01-04T11:06:57.977Z,12.20
2023-01-04T11:09:28.963Z,12.20
2023-01-04T11:11:58.679Z,12.20
2023-01-04T11:14:33.406Z,12.20
2023-01-04T11:17:06.525Z,12.10
2023-01-04T11:19:35.631Z,12.10
2023-01-04T11:22:08.930Z,12.10
2023-01-04T11:24:38.945Z,12.10
2023-01-04T11:27:14.317Z,12.00
2023-01-04T11:29:47.609Z,12.00
2023-01-04T11:32:20.629Z,12.00
2023-01-04T11:34:53.078Z,12.00
2023-01-04T11:37:30.853Z,12.10
2023-01-04T11:40:24.601Z,12.10
2023-01-04T11:42:54.720Z,12.10
2023-01-04T11:45:27.657Z,12.10
2023-01-04T11:47:56.869Z,12.20
2023-01-04T11:50:43.403Z,12.20
2023-01-04T11:53:33.266Z,12.20
2023-01-04T11:56:17.218Z,12.20
2023-01-04T11:59:03.394Z,12.30
2023-01-04T12:01:34.159Z,12.30
2023-01-04T12:04:02.690Z,12.30
2023-01-04T12:06:41.960Z,12.30
2023-01-04T12:09:14.878Z,12.40
2023-01-04T12:11:46.645Z,12.40
2023-01-04T12:14:21.399Z,12.40
2023-01-04T12:16:56.912Z,12.50
2023-01-04T12:19:26.207Z,12.50
2023-01-04T12:21:57.393Z,12.50
2023-01-04T12:24:29.266Z,12.50
2023-01-04T12:26:58.327Z,12.50
2023-01-04T12:30:00.079Z,12.50
2023-01-04T12:32:46.857Z,12.60
2023-01-04T12:36:00.615Z,12.60
2023-01-04T12:39:07.565Z,12.60
2023-01-04T12:42:17.666Z,12.60
2023-01-04T12:45:15.452Z,12.70
2023-01-04T12:48:04.376Z,12.70
2023-01-04T12:50:34.170Z,12.80
2023-01-04T12:55:56.509Z,12.90
2023-01-04T13:02:15.552Z,13.00
2023-01-04T13:04:45.396Z,13.00
2023-01-04T13:07:19.444Z,13.00
2023-01-04T13:09:57.644Z,13.10
2023-01-04T13:12:55.597Z,13.10
2023-01-04T13:15:31.480Z,13.20
2023-01-04T13:17:59.588Z,13.20
2023-01-04T13:20:30.944Z,13.20
2023-01-04T13:23:00.293Z,13.30
2023-01-04T13:25:28.602Z,13.30
2023-01-04T13:28:01.180Z,13.30
2023-01-04T13:30:35.212Z,13.40
2023-01-04T13:33:27.989Z,13.50
2023-01-04T13:36:04.487Z,13.60
2023-01-04T13:38:35.391Z,13.60
2023-01-04T13:41:07.579Z,13.60
2023-01-04T13:43:57.726Z,13.70
2023-01-04T13:46:27.804Z,13.70
2023-01-04T13:49:02.543Z,13.70
2023-01-04T13:51:37.735Z,13.70
2023-01-04T13:54:08.124Z,13.70
2023-01-04T13:56:36.476Z,13.70
2023-01-04T13:59:04.826Z,13.70
2023-01-04T14:01:34.546Z,13.70
2023-01-04T14:04:04.861Z,13.80
2023-01-04T14:06:36.197Z,13.80
2023-01-04T14:09:07.140Z,13.80
2023-01-04T14:14:55.324Z,13.80
2023-01-04T14:17:34.606Z,13.80
2023-01-04T14:20:05.232Z,13.80
2023-01-04T14:22:40.929Z,13.90
2023-01-04T14:25:45.029Z,13.90
2023-01-04T14:28:41.683Z,13.90
2023-01-04T14:31:33.138Z,13.90
2023-01-04T14:34:08.186Z,13.90
2023-01-04T14:36:38.565Z,13.90
2023-01-04T14:39:26.813Z,13.90
2023-01-04T14:41:57.505Z,13.90
2023-01-04T14:44:28.422Z,14.00
2023-01-04T14:46:58.545Z,14.00
2023-01-04T14:49:28.284Z,14.00
2023-01-04T14:51:58.029Z,14.10
2023-01-04T14:54:29.467Z,14.10
2023-01-04T14:56:58.786Z,14.10
2023-01-04T14:59:28.656Z,14.10
2023-01-04T15:01:58.679Z,14.10
2023-01-04T15:04:27.100Z,14.20
2023-01-04T15:06:58.022Z,14.20
2023-01-04T15:09:28.552Z,14.20
2023-01-04T15:11:57.192Z,14.20
2023-01-04T15:14:25.687Z,14.20
2023-01-04T15:16:53.765Z,14.20
2023-01-04T15:19:21.974Z,14.10
2023-01-04T15:21:50.036Z,14.10
2023-01-04T15:24:18.077Z,14.10
2023-01-04T15:26:48.821Z,14.00
2023-01-04T15:29:16.874Z,14.00
2023-01-04T15:31:44.968Z,14.00
2023-01-04T15:34:15.403Z,14.00
2023-01-04T15:36:43.656Z,14.00
2023-01-04T15:39:14.535Z,14.00
2023-01-04T15:41:59.997Z,13.90
2023-01-04T15:44:29.555Z,13.90
2023-01-04T15:46:59.241Z,13.90
2023-01-04T15:49:29.535Z,13.80
2023-01-04T15:51:57.835Z,13.80
2023-01-04T15:54:26.541Z,13.80
2023-01-04T15:56:54.624Z,13.80
2023-01-04T15:59:23.308Z,13.70
2023-01-04T16:01:53.013Z,13.60
2023-01-04T16:04:21.239Z,13.50
2023-01-04T16:06:49.398Z,13.40
2023-01-04T16:09:17.617Z,13.40
2023-01-04T16:11:59.691Z,13.30
2023-01-04T16:14:28.019Z,13.30
2023-01-04T16:16:57.968Z,13.20
2023-01-04T16:19:26.278Z,13.20
2023-01-04T16:21:54.376Z,13.30
2023-01-04T16:25:00.285Z,13.30
2023-01-04T16:27:10.693Z,13.30
2023-01-04T16:29:38.807Z,13.30
2023-01-04T16:32:08.619Z,13.30
2023-01-04T16:34:37.218Z,13.30
2023-01-04T16:37:05.413Z,13.40
2023-01-04T16:40:05.390Z,13.30
2023-01-04T16:42:21.977Z,13.30
2023-01-04T16:44:50.023Z,13.30
2023-01-04T16:47:19.540Z,13.50
2023-01-04T16:49:52.321Z,13.50
2023-01-04T16:52:20.880Z,13.50
2023-01-04T16:54:50.009Z,13.60
2023-01-04T16:57:18.031Z,13.50
2023-01-04T16:59:46.106Z,13.50
2023-01-04T17:02:14.570Z,13.40
2023-01-04T17:04:44.092Z,13.40
2023-01-04T17:07:12.142Z,13.40
2023-01-04T17:09:41.208Z,13.40
2023-01-04T17:17:45.644Z,13.40
2023-01-04T17:20:15.293Z,13.40
2023-01-04T17:22:43.345Z,13.40
2023-01-04T17:25:11.509Z,13.30
2023-01-04T17:27:39.534Z,13.40
2023-01-04T17:30:08.796Z,13.50
2023-01-04T17:32:37.070Z,13.50
2023-01-04T17:35:05.833Z,13.40
2023-01-04T17:37:35.225Z,13.40
2023-01-04T17:40:03.638Z,13.50
2023-01-04T17:42:33.782Z,13.40
2023-01-04T17:45:01.956Z,13.50
2023-01-04T17:47:29.989Z,13.50
2023-01-04T17:49:58.046Z,13.50
2023-01-04T17:52:31.169Z,13.50
2023-01-04T17:55:01.519Z,13.50
2023-01-04T17:57:31.150Z,13.50
2023-01-04T17:59:59.295Z,13.50
2023-01-04T18:02:27.533Z,13.60
2023-01-04T18:04:55.647Z,13.60
2023-01-04T18:07:25.467Z,13.50
2023-01-04T18:09:53.919Z,13.50
2023-01-04T18:12:23.413Z,13.50
2023-01-04T18:14:51.507Z,13.50
2023-01-04T18:17:19.625Z,13.50
2023-01-04T18:19:47.718Z,13.50
2023-01-04T18:22:15.934Z,13.50
2023-01-04T18:24:43.979Z,13.50
2023-01-04T18:27:23.087Z,13.50
2023-01-04T18:29:54.576Z,13.50
2023-01-04T18:32:23.065Z,13.50
2023-01-04T18:34:51.116Z,13.50
2023-01-04T18:37:19.472Z,13.50
2023-01-04T18:39:48.309Z,13.50
2023-01-04T18:42:16.939Z,13.50
2023-01-04T18:44:48.856Z,13.50
2023-01-04T18:47:20.720Z,13.50
2023-01-04T18:49:48.994Z,13.50
2023-01-04T18:52:17.517Z,13.60
2023-01-04T18:54:46.369Z,13.60
2023-01-04T18:57:14.557Z,13.50
2023-01-04T18:59:42.943Z,13.60
2023-01-04T19:02:17.223Z,13.60
2023-01-04T19:04:47.275Z,13.60
2023-01-04T19:07:15.733Z,13.60
2023-01-04T19:09:44.927Z,13.60
2023-01-04T19:12:13.122Z,13.60
2023-01-04T19:14:41.883Z,13.70
2023-01-04T19:17:10.292Z,13.70
2023-01-04T19:19:38.587Z,13.70
2023-01-04T19:22:08.068Z,13.70
2023-01-04T19:24:36.110Z,13.60
2023-01-04T19:27:05.189Z,13.60
2023-01-04T19:29:36.012Z,13.60
2023-01-04T19:32:04.396Z,13.60
2023-01-04T19:34:32.470Z,13.60
2023-01-04T19:37:00.705Z,13.60
2023-01-04T19:39:30.323Z,13.60
2023-01-04T19:41:58.353Z,13.70
2023-01-04T19:44:26.403Z,13.70
2023-01-04T19:46:54.589Z,13.70
2023-01-04T19:49:22.634Z,13.70
2023-01-04T19:51:51.681Z,13.70
2023-01-04T19:54:25.041Z,13.60
2023-01-04T19:56:55.619Z,13.60
2023-01-04T19:59:23.760Z,13.60
2023-01-04T20:01:52.098Z,13.60
2023-01-04T20:04:20.542Z,13.70
2023-01-04T20:06:48.718Z,13.70
2023-01-04T20:09:18.423Z,13.60
2023-01-04T20:11:46.601Z,13.60
2023-01-04T20:14:16.028Z,13.60
2023-01-04T20:16:44.121Z,13.70
2023-01-04T20:19:12.277Z,13.70
2023-01-04T20:21:40.498Z,13.70
2023-01-04T20:24:09.109Z,13.60
2023-01-04T20:26:37.630Z,13.70
2023-01-04T20:29:05.697Z,13.70
2023-01-04T20:31:35.593Z,13.70
2023-01-04T20:34:04.026Z,13.70
2023-01-04T20:36:32.071Z,13.60
2023-01-04T20:39:00.523Z,13.60
2023-01-04T20:41:31.707Z,13.50
2023-01-04T20:43:59.929Z,13.50
2023-01-04T20:46:31.695Z,13.50
2023-01-04T20:49:02.440Z,13.50
2023-01-04T20:51:31.732Z,13.40
2023-01-04T20:54:00.667Z,13.40
2023-01-04T20:56:30.292Z,13.40
2023-01-04T20:58:58.359Z,13.40
2023-01-04T21:01:26.623Z,13.40
2023-01-04T21:03:54.774Z,13.40
2023-01-04T21:06:24.817Z,13.40
2023-01-04T21:08:54.926Z,13.40
2023-01-04T21:11:23.725Z,13.40
2023-01-04T21:13:52.742Z,13.30
2023-01-04T21:16:21.097Z,13.30
2023-01-04T21:18:49.177Z,13.30
2023-01-04T21:21:18.925Z,13.40
2023-01-04T21:23:56.079Z,13.40
2023-01-04T21:26:26.023Z,13.40
2023-01-04T21:28:54.068Z,13.40
2023-01-04T21:31:24.299Z,13.40
2023-01-04T21:33:53.323Z,13.40
2023-01-04T21:36:23.515Z,13.40
2023-01-04T21:38:54.919Z,13.40
2023-01-04T21:41:24.706Z,13.40
2023-01-04T21:43:54.106Z,13.50
2023-01-04T21:46:22.533Z,13.50
2023-01-04T21:48:55.436Z,13.50
2023-01-04T21:51:23.527Z,13.50
2023-01-04T21:53:53.650Z,13.50
2023-01-04T21:56:23.405Z,13.50
2023-01-04T21:58:52.168Z,13.50
2023-01-04T22:01:22.514Z,13.50
2023-01-04T22:03:51.011Z,13.50
2023-01-04T22:06:20.574Z,13.50
2023-01-04T22:08:48.611Z,13.50
2023-01-04T22:11:18.006Z,13.50
2023-01-04T22:13:46.211Z,13.50
2023-01-04T22:16:16.058Z,13.40
2023-01-04T22:18:47.885Z,13.40
2023-01-04T22:21:18.039Z,13.40
2023-01-04T22:23:46.119Z,13.40
2023-01-04T22:26:14.155Z,13.30
2023-01-04T22:28:43.735Z,13.40
2023-01-04T22:31:14.063Z,13.40
2023-01-04T22:33:42.825Z,13.40
2023-01-04T22:36:19.076Z,13.40
2023-01-04T22:38:47.440Z,13.40
2023-01-04T22:41:16.984Z,13.40
2023-01-04T22:43:46.621Z,13.40
2023-01-04T22:46:17.263Z,13.40
2023-01-04T22:48:45.838Z,13.40
2023-01-04T22:51:15.850Z,13.40
2023-01-04T22:53:44.188Z,13.30
2023-01-04T22:56:19.669Z,13.30
2023-01-04T22:58:53.574Z,13.30
2023-01-04T23:01:22.420Z,13.30
2023-01-04T23:03:51.853Z,13.30
2023-01-04T23:06:20.639Z,13.30
2023-01-04T23:08:48.750Z,13.20
2023-01-04T23:11:19.405Z,13.20
2023-01-04T23:13:48.803Z,13.20
2023-01-04T23:16:18.343Z,13.20
2023-01-04T23:18:46.766Z,13.20
2023-01-04T23:21:15.539Z,13.20
2023-01-04T23:23:44.023Z,13.20
2023-01-04T23:26:15.643Z,13.20
2023-01-04T23:28:43.700Z,13.20
2023-01-04T23:31:16.008Z,13.20
2023-01-04T23:33:44.229Z,13.20
2023-01-04T23:36:14.597Z,13.20
2023-01-04T23:38:43.701Z,13.10
2023-01-04T23:41:12.428Z,13.10
2023-01-04T23:43:40.769Z,13.10
2023-01-04T23:48:38.266Z,13.10
2023-01-04T23:51:06.677Z,13.10
2023-01-04T23:53:34.758Z,13.00
2023-01-04T23:56:05.196Z,13.00
2023-01-04T23:58:33.978Z,13.00
